createdAt,value
2022-10-05T00:00:53.519Z,6.28
2022-10-05T00:02:56.242Z,6.32
2022-10-05T00:04:59.450Z,6.37
2022-10-05T00:07:09.693Z,6.43
2022-10-05T00:09:20.860Z,6.41
2022-10-05T00:11:23.180Z,6.41
2022-10-05T00:13:28.851Z,6.41
2022-10-05T00:15:31.118Z,6.46
2022-10-05T00:17:33.329Z,6.41
2022-10-05T00:19:37.204Z,6.44
2022-10-05T00:21:39.244Z,6.42
2022-10-05T00:23:41.462Z,6.42
2022-10-05T00:25:43.534Z,6.48
2022-10-05T00:27:53.910Z,6.48
2022-10-05T00:30:00.387Z,6.52
2022-10-05T00:32:02.932Z,6.48
2022-10-05T00:34:05.194Z,6.51
2022-10-05T00:36:07.748Z,6.43
2022-10-05T00:38:09.867Z,6.42
2022-10-05T00:40:32.313Z,6.42
2022-10-05T00:42:46.445Z,6.44
2022-10-05T00:45:13.403Z,6.39
2022-10-05T00:47:45.952Z,6.36
2022-10-05T00:50:00.580Z,6.43
2022-10-05T00:52:20.417Z,6.43
2022-10-05T00:54:25.500Z,6.37
2022-10-05T00:56:49.875Z,6.37
2022-10-05T00:59:10.883Z,6.36
2022-10-05T01:01:23.045Z,6.37
2022-10-05T01:03:50.772Z,6.34
2022-10-05T01:06:16.624Z,6.39
2022-10-05T01:08:47.892Z,6.35
2022-10-05T01:11:06.655Z,6.46
2022-10-05T01:13:45.792Z,6.47
2022-10-05T01:16:19.616Z,6.41
2022-10-05T01:18:27.778Z,6.46
2022-10-05T01:20:45.082Z,6.50
2022-10-05T01:23:02.087Z,6.51
2022-10-05T01:25:19.840Z,6.52
2022-10-05T01:28:15.744Z,6.51
2022-10-05T01:30:20.702Z,6.42
2022-10-05T01:32:39.811Z,6.36
2022-10-05T01:35:02.542Z,6.34
2022-10-05T01:37:42.143Z,6.38
2022-10-05T01:39:54.529Z,6.38
2022-10-05T01:42:08.269Z,6.41
2022-10-05T01:44:20.261Z,6.41
2022-10-05T01:46:50.389Z,6.48
2022-10-05T01:49:19.886Z,6.49
2022-10-05T01:51:43.347Z,6.48
2022-10-05T01:54:03.671Z,6.45
2022-10-05T01:56:23.694Z,6.41
2022-10-05T01:58:37.198Z,6.46
2022-10-05T02:01:04.315Z,6.47
2022-10-05T02:03:15.334Z,6.39
2022-10-05T02:05:26.435Z,6.44
2022-10-05T02:07:44.078Z,6.38
2022-10-05T02:10:13.222Z,6.45
2022-10-05T02:12:20.064Z,6.43
2022-10-05T02:14:44.947Z,6.38
2022-10-05T02:16:49.531Z,6.39
2022-10-05T02:19:01.348Z,6.43
2022-10-05T02:21:05.481Z,6.42
2022-10-05T02:23:23.447Z,6.45
2022-10-05T02:25:31.416Z,6.42
2022-10-05T02:27:38.605Z,6.41
2022-10-05T02:29:46.914Z,6.44
2022-10-05T02:32:05.092Z,6.46
2022-10-05T02:34:26.725Z,6.45
2022-10-05T02:36:36.553Z,6.34
2022-10-05T02:39:04.791Z,6.46
2022-10-05T02:41:14.259Z,6.45
2022-10-05T02:43:31.101Z,6.47
2022-10-05T02:45:49.911Z,6.44
2022-10-05T02:48:07.582Z,6.42
2022-10-05T02:50:16.474Z,6.44
2022-10-05T02:52:27.204Z,6.46
2022-10-05T02:55:03.075Z,6.47
2022-10-05T02:57:23.255Z,6.38
2022-10-05T02:59:43.920Z,6.38
2022-10-05T03:02:05.132Z,6.42
2022-10-05T03:04:37.386Z,6.41
2022-10-05T03:07:06.566Z,6.37
2022-10-05T03:09:10.050Z,6.33
2022-10-05T03:11:25.547Z,6.34
2022-10-05T03:13:54.632Z,6.33
2022-10-05T03:15:56.776Z,6.31
2022-10-05T03:18:20.253Z,6.30
2022-10-05T03:20:25.249Z,6.30
2022-10-05T03:22:32.840Z,6.32
2022-10-05T03:24:51.956Z,6.29
2022-10-05T03:27:09.060Z,6.30
2022-10-05T03:29:32.312Z,6.36
2022-10-05T03:32:00.719Z,6.36
2022-10-05T03:34:21.988Z,6.37
2022-10-05T03:36:55.761Z,6.37
2022-10-05T03:39:14.504Z,6.28
2022-10-05T03:41:43.844Z,6.33
2022-10-05T03:44:04.777Z,6.38
2022-10-05T03:46:25.061Z,6.38
2022-10-05T03:48:56.624Z,6.33
2022-10-05T03:51:14.897Z,6.39
2022-10-05T03:53:28.416Z,6.37
2022-10-05T03:55:57.145Z,6.37
2022-10-05T03:58:06.193Z,6.32
2022-10-05T04:00:16.148Z,6.34
2022-10-05T04:02:37.290Z,6.36
2022-10-05T04:05:14.339Z,6.37
2022-10-05T04:07:43.742Z,6.43
2022-10-05T04:09:51.282Z,6.37
2022-10-05T04:12:09.016Z,6.45
2022-10-05T04:14:17.886Z,6.44
2022-10-05T04:16:29.958Z,6.42
2022-10-05T04:18:37.557Z,6.43
2022-10-05T04:20:52.272Z,6.43
2022-10-05T04:23:10.233Z,6.50
2022-10-05T04:25:24.121Z,6.46
2022-10-05T04:27:34.694Z,6.52
2022-10-05T04:29:39.940Z,6.51
2022-10-05T04:32:15.989Z,6.49
2022-10-05T04:34:31.503Z,6.52
2022-10-05T04:36:46.044Z,6.55
2022-10-05T04:38:55.412Z,6.55
2022-10-05T04:41:15.019Z,6.58
2022-10-05T04:43:20.782Z,6.59
2022-10-05T04:45:37.668Z,6.60
2022-10-05T04:47:56.159Z,6.59
2022-10-05T04:50:07.901Z,6.64
2022-10-05T04:52:32.136Z,6.67
2022-10-05T04:54:56.767Z,6.67
2022-10-05T04:57:13.208Z,6.63
2022-10-05T04:59:39.595Z,6.63
2022-10-05T05:01:59.423Z,6.68
2022-10-05T05:04:17.027Z,6.70
2022-10-05T05:06:32.666Z,6.80
2022-10-05T05:09:20.272Z,6.81
2022-10-05T05:11:55.935Z,6.86
2022-10-05T05:14:17.103Z,6.90
2022-10-05T05:16:44.214Z,6.95
2022-10-05T05:18:50.688Z,6.91
2022-10-05T05:21:04.933Z,7.02
2022-10-05T05:23:31.200Z,7.06
2022-10-05T05:25:47.603Z,7.09
2022-10-05T05:27:57.914Z,7.11
2022-10-05T05:30:02.171Z,7.18
2022-10-05T05:32:14.698Z,7.24
2022-10-05T05:34:50.664Z,7.34
2022-10-05T05:37:22.136Z,7.38
2022-10-05T05:39:29.354Z,7.40
2022-10-05T05:41:50.738Z,7.39
2022-10-05T05:44:17.923Z,7.47
2022-10-05T05:47:01.912Z,7.52
2022-10-05T05:48:51.608Z,7.60
2022-10-05T05:51:17.989Z,7.69
2022-10-05T05:53:37.395Z,7.68
2022-10-05T05:55:44.154Z,7.73
2022-10-05T05:58:09.530Z,7.76
2022-10-05T06:00:14.882Z,7.80
2022-10-05T06:02:35.492Z,7.79
2022-10-05T06:04:45.270Z,7.78
2022-10-05T06:06:52.179Z,7.82
2022-10-05T06:08:58.584Z,7.87
2022-10-05T06:11:23.712Z,8.02
2022-10-05T06:13:34.628Z,8.12
2022-10-05T06:15:46.230Z,8.21
2022-10-05T06:17:56.492Z,8.29
2022-10-05T06:20:05.423Z,8.45
2022-10-05T06:22:19.953Z,8.49
2022-10-05T06:24:46.416Z,8.59
2022-10-05T06:27:12.857Z,8.59
2022-10-05T06:29:23.957Z,8.53
2022-10-05T06:32:00.186Z,8.47
2022-10-05T06:34:17.303Z,8.45
2022-10-05T06:36:49.501Z,8.59
2022-10-05T06:39:22.100Z,8.77
2022-10-05T06:41:44.012Z,8.90
2022-10-05T06:43:55.212Z,9.09
2022-10-05T06:46:23.792Z,9.19
2022-10-05T06:48:54.706Z,9.26
2022-10-05T06:51:31.452Z,9.13
2022-10-05T06:53:46.921Z,8.90
2022-10-05T06:55:57.821Z,8.70
2022-10-05T06:58:03.015Z,8.60
2022-10-05T07:00:21.474Z,8.52
2022-10-05T07:02:55.374Z,8.54
2022-10-05T07:05:07.062Z,8.64
2022-10-05T07:07:19.824Z,8.76
2022-10-05T07:09:57.521Z,8.83
2022-10-05T07:12:08.733Z,8.78
2022-10-05T07:14:37.388Z,8.71
2022-10-05T07:17:13.074Z,8.64
2022-10-05T07:19:27.809Z,8.56
2022-10-05T07:21:29.911Z,8.45
2022-10-05T07:23:50.095Z,8.36
2022-10-05T07:26:03.325Z,8.17
2022-10-05T07:28:42.680Z,8.23
2022-10-05T07:30:57.903Z,8.20
2022-10-05T07:33:18.134Z,8.15
2022-10-05T07:35:49.891Z,8.19
2022-10-05T07:37:57.484Z,8.16
2022-10-05T07:40:26.443Z,8.20
2022-10-05T07:42:31.461Z,8.37
2022-10-05T07:44:44.023Z,8.41
2022-10-05T07:46:56.971Z,8.56
2022-10-05T07:49:17.953Z,8.74
2022-10-05T07:51:45.195Z,8.84
2022-10-05T07:53:56.989Z,8.83
2022-10-05T07:56:06.804Z,8.76
2022-10-05T07:58:19.126Z,8.86
2022-10-05T08:00:24.495Z,8.93
2022-10-05T08:02:49.594Z,8.97
2022-10-05T08:05:04.168Z,8.99
2022-10-05T08:07:11.766Z,9.00
2022-10-05T08:09:35.077Z,9.12
2022-10-05T08:12:02.822Z,9.17
2022-10-05T08:14:23.879Z,9.18
2022-10-05T08:16:31.075Z,9.26
2022-10-05T08:18:45.574Z,9.37
2022-10-05T08:20:52.061Z,9.52
2022-10-05T08:23:36.133Z,9.77
2022-10-05T08:25:46.417Z,10.13
2022-10-05T08:27:52.772Z,10.45
2022-10-05T08:30:05.700Z,10.76
2022-10-05T08:32:44.385Z,11.16
2022-10-05T08:35:01.498Z,11.57
2022-10-05T08:37:27.676Z,12.12
2022-10-05T08:39:40.929Z,12.35
2022-10-05T08:41:52.794Z,12.46
2022-10-05T08:44:12.782Z,12.52
2022-10-05T08:46:42.328Z,12.46
2022-10-05T08:49:21.708Z,12.22
2022-10-05T08:51:48.734Z,12.01
2022-10-05T08:54:12.310Z,11.79
2022-10-05T08:56:19.751Z,11.64
2022-10-05T08:59:00.115Z,11.46
2022-10-05T09:01:05.098Z,11.26
2022-10-05T09:03:08.163Z,11.11
2022-10-05T09:05:28.509Z,11.00
2022-10-05T09:07:45.589Z,10.88
2022-10-05T09:10:02.862Z,10.83
2022-10-05T09:12:11.625Z,10.80
2022-10-05T09:14:13.860Z,10.86
2022-10-05T09:16:49.469Z,10.95
2022-10-05T09:19:14.779Z,11.09
2022-10-05T09:21:56.630Z,11.28
2022-10-05T09:24:19.425Z,11.45
2022-10-05T09:26:43.479Z,11.40
2022-10-05T09:29:24.785Z,11.06
2022-10-05T09:31:59.040Z,10.64
2022-10-05T09:34:03.844Z,10.43
2022-10-05T09:36:27.398Z,10.30
2022-10-05T09:38:58.715Z,10.11
2022-10-05T09:41:36.224Z,10.08
2022-10-05T09:44:02.080Z,10.08
2022-10-05T09:46:28.817Z,10.14
2022-10-05T09:48:49.819Z,10.29
2022-10-05T09:51:20.713Z,10.45
2022-10-05T09:53:45.379Z,10.65
2022-10-05T09:56:25.216Z,10.84
2022-10-05T09:59:06.578Z,10.85
2022-10-05T10:01:33.655Z,10.73
2022-10-05T10:03:57.611Z,10.49
2022-10-05T10:06:06.523Z,10.32
2022-10-05T10:08:23.685Z,10.31
2022-10-05T10:10:53.977Z,10.20
2022-10-05T10:13:09.429Z,9.96
2022-10-05T10:15:57.793Z,9.76
2022-10-05T10:18:18.478Z,9.74
2022-10-05T10:20:23.877Z,9.75
2022-10-05T10:23:03.008Z,9.87
2022-10-05T10:25:14.059Z,10.02
2022-10-05T10:27:59.657Z,10.18
2022-10-05T10:30:26.285Z,10.25
2022-10-05T10:32:44.651Z,10.22
2022-10-05T10:35:15.808Z,10.15
2022-10-05T10:37:23.814Z,10.00
2022-10-05T10:39:56.745Z,9.93
2022-10-05T10:42:42.963Z,9.88
2022-10-05T10:45:08.265Z,9.88
2022-10-05T10:47:18.974Z,9.93
2022-10-05T10:49:54.710Z,10.16
2022-10-05T10:51:56.823Z,10.36
2022-10-05T10:54:20.691Z,10.62
2022-10-05T10:56:48.386Z,10.64
2022-10-05T10:59:30.828Z,10.65
2022-10-05T11:01:53.104Z,10.62
2022-10-05T11:04:35.726Z,10.56
2022-10-05T11:06:52.917Z,10.43
2022-10-05T11:09:21.401Z,10.38
2022-10-05T11:11:31.078Z,10.41
2022-10-05T11:13:52.682Z,10.37
2022-10-05T11:16:27.057Z,10.32
2022-10-05T11:18:29.063Z,10.30
2022-10-05T11:20:39.873Z,10.34
2022-10-05T11:22:54.086Z,10.44
2022-10-05T11:25:25.306Z,10.47
2022-10-05T11:27:40.540Z,10.53
2022-10-05T11:30:10.803Z,10.69
2022-10-05T11:32:34.165Z,10.82
2022-10-05T11:34:53.293Z,11.00
2022-10-05T11:37:20.598Z,11.21
2022-10-05T11:39:33.534Z,11.21
2022-10-05T11:41:54.051Z,11.11
2022-10-05T11:44:06.149Z,11.08
2022-10-05T11:46:34.270Z,11.09
2022-10-05T11:48:51.144Z,10.95
2022-10-05T11:51:34.323Z,10.73
2022-10-05T11:53:49.311Z,10.43
2022-10-05T11:56:00.491Z,10.12
2022-10-05T11:58:38.040Z,9.89
2022-10-05T12:00:42.501Z,9.77
2022-10-05T12:03:21.883Z,9.74
2022-10-05T12:05:42.380Z,9.82
2022-10-05T12:08:03.384Z,10.00
2022-10-05T12:10:33.050Z,10.15
2022-10-05T12:12:44.347Z,10.31
2022-10-05T12:15:11.045Z,10.50
2022-10-05T12:17:31.919Z,10.59
2022-10-05T12:19:48.826Z,10.43
2022-10-05T12:22:19.364Z,10.31
2022-10-05T12:24:42.601Z,10.20
2022-10-05T12:26:53.269Z,10.18
2022-10-05T12:29:08.940Z,10.14
2022-10-05T12:31:13.912Z,10.08
2022-10-05T12:33:24.072Z,10.05
2022-10-05T12:35:47.324Z,9.90
2022-10-05T12:38:12.081Z,9.69
2022-10-05T12:40:14.753Z,9.55
2022-10-05T12:42:22.949Z,9.44
2022-10-05T12:45:19.443Z,9.35
2022-10-05T12:47:23.890Z,9.30
2022-10-05T12:49:44.345Z,9.42
2022-10-05T12:52:01.071Z,9.55
2022-10-05T12:54:32.810Z,9.63
2022-10-05T12:56:49.800Z,9.62
2022-10-05T12:59:02.585Z,9.49
2022-10-05T13:01:46.889Z,9.34
2022-10-05T13:04:03.315Z,9.22
2022-10-05T13:06:31.067Z,9.14
2022-10-05T13:09:12.652Z,9.16
2022-10-05T13:11:47.728Z,9.21
2022-10-05T13:13:59.612Z,9.13
2022-10-05T13:16:33.227Z,8.99
2022-10-05T13:18:44.931Z,8.94
2022-10-05T13:24:09.879Z,8.67
2022-10-05T13:27:06.883Z,8.60
2022-10-05T13:29:37.275Z,8.60
2022-10-05T13:32:29.474Z,8.64
2022-10-05T13:35:15.578Z,8.87
2022-10-05T13:37:38.742Z,9.20
2022-10-05T13:42:43.625Z,9.41
2022-10-05T13:45:10.825Z,9.30
2022-10-05T13:47:51.325Z,9.25
2022-10-05T13:50:00.278Z,9.10
2022-10-05T13:52:17.743Z,9.00
2022-10-05T13:54:47.938Z,8.93
2022-10-05T13:56:56.927Z,8.83
2022-10-05T13:59:11.694Z,8.87
2022-10-05T14:01:20.279Z,8.85
2022-10-05T14:03:35.107Z,8.87
2022-10-05T14:05:55.874Z,8.82
2022-10-05T14:08:17.418Z,8.76
2022-10-05T14:10:41.989Z,8.67
2022-10-05T14:12:46.095Z,8.55
2022-10-05T14:14:57.127Z,8.47
2022-10-05T14:19:21.923Z,8.34
2022-10-05T14:21:28.195Z,8.19
2022-10-05T14:23:31.258Z,8.15
2022-10-05T14:25:50.539Z,8.05
2022-10-05T14:28:06.479Z,7.96
2022-10-05T14:30:08.620Z,7.92
2022-10-05T14:32:22.499Z,7.86
2022-10-05T14:34:32.232Z,7.77
2022-10-05T14:36:44.062Z,7.66
2022-10-05T14:38:57.914Z,7.62
2022-10-05T14:41:20.621Z,7.55
2022-10-05T14:43:22.673Z,7.46
2022-10-05T14:45:30.003Z,7.37
2022-10-05T14:47:32.426Z,7.29
2022-10-05T14:49:38.383Z,7.25
2022-10-05T14:51:42.365Z,7.15
2022-10-05T14:53:56.165Z,7.16
2022-10-05T14:56:23.148Z,7.09
2022-10-05T14:58:51.815Z,7.01
2022-10-05T15:01:18.432Z,6.93
2022-10-05T15:03:51.045Z,6.83
2022-10-05T15:05:58.970Z,6.67
2022-10-05T15:08:31.373Z,6.63
2022-10-05T15:10:52.481Z,6.55
2022-10-05T15:12:58.428Z,6.43
2022-10-05T15:15:14.231Z,6.46
2022-10-05T15:17:50.871Z,6.47
2022-10-05T15:20:15.207Z,6.48
2022-10-05T15:22:18.805Z,6.42
2022-10-05T15:24:34.269Z,6.32
2022-10-05T15:26:49.226Z,6.39
2022-10-05T15:29:11.888Z,6.40
2022-10-05T15:31:32.064Z,6.39
2022-10-05T15:33:51.463Z,6.33
2022-10-05T15:36:00.761Z,6.35
2022-10-05T15:38:05.754Z,6.37
2022-10-05T15:40:36.740Z,6.33
2022-10-05T15:42:43.122Z,6.34
2022-10-05T15:45:06.544Z,6.48
2022-10-05T15:47:26.729Z,6.55
2022-10-05T15:49:47.398Z,6.63
2022-10-05T15:52:06.187Z,6.66
2022-10-05T15:54:43.285Z,6.68
2022-10-05T15:57:20.995Z,6.67
2022-10-05T15:59:42.497Z,6.64
2022-10-05T16:01:51.981Z,6.65
2022-10-05T16:04:23.286Z,6.68
2022-10-05T16:07:03.749Z,6.71
2022-10-05T16:09:33.194Z,6.71
2022-10-05T16:11:47.252Z,6.74
2022-10-05T16:14:14.905Z,6.72
2022-10-05T16:16:33.987Z,6.74
2022-10-05T16:18:41.956Z,6.69
2022-10-05T16:20:53.069Z,6.64
2022-10-05T16:22:59.728Z,6.65
2022-10-05T16:25:09.756Z,6.61
2022-10-05T16:27:36.669Z,6.54
2022-10-05T16:29:51.767Z,6.48
2022-10-05T16:32:04.476Z,6.37
2022-10-05T16:34:26.435Z,6.24
2022-10-05T16:36:49.448Z,6.09
2022-10-05T16:39:03.617Z,5.95
2022-10-05T16:41:17.896Z,5.82
2022-10-05T16:43:22.792Z,5.70
2022-10-05T16:45:45.326Z,5.60
2022-10-05T16:47:57.539Z,5.50
2022-10-05T16:50:17.886Z,5.42
2022-10-05T16:52:23.612Z,5.33
2022-10-05T16:54:45.430Z,5.28
2022-10-05T16:57:27.561Z,5.25
2022-10-05T16:59:57.091Z,5.25
2022-10-05T17:02:24.597Z,5.29
2022-10-05T17:04:35.369Z,5.27
2022-10-05T17:06:54.189Z,5.36
2022-10-05T17:09:15.233Z,5.43
2022-10-05T17:11:20.838Z,5.51
2022-10-05T17:13:43.607Z,5.57
2022-10-05T17:16:22.258Z,5.60
2022-10-05T17:18:30.805Z,5.64
2022-10-05T17:20:47.408Z,5.66
2022-10-05T17:22:52.392Z,5.72
2022-10-05T17:25:39.224Z,5.75
2022-10-05T17:28:37.316Z,5.75
2022-10-05T17:31:22.017Z,5.79
2022-10-05T17:33:31.716Z,5.78
2022-10-05T17:36:01.059Z,5.81
2022-10-05T17:38:22.581Z,5.80
2022-10-05T17:41:10.206Z,5.85
2022-10-05T17:43:16.574Z,5.86
2022-10-05T17:45:21.722Z,5.85
2022-10-05T17:47:58.831Z,5.89
2022-10-05T17:50:19.867Z,5.76
2022-10-05T17:52:45.852Z,5.89
2022-10-05T17:55:06.948Z,5.89
2022-10-05T17:57:09.296Z,5.87
2022-10-05T17:59:12.557Z,5.68
2022-10-05T18:01:48.307Z,5.82
2022-10-05T18:03:52.129Z,5.77
2022-10-05T18:06:29.483Z,5.80
2022-10-05T18:08:41.091Z,5.72
2022-10-05T18:11:35.687Z,5.70
2022-10-05T18:13:45.553Z,5.59
2022-10-05T18:15:49.380Z,5.56
2022-10-05T18:18:42.576Z,5.53
2022-10-05T18:21:13.847Z,5.60
2022-10-05T18:23:22.127Z,5.54
2022-10-05T18:25:36.042Z,5.55
2022-10-05T18:28:04.245Z,5.38
2022-10-05T18:30:22.081Z,5.30
2022-10-05T18:32:37.689Z,5.17
2022-10-05T18:35:03.390Z,4.97
2022-10-05T18:37:37.406Z,4.91
2022-10-05T18:40:21.530Z,4.66
2022-10-05T18:42:52.316Z,4.62
2022-10-05T18:45:06.721Z,4.51
2022-10-05T18:47:39.441Z,4.42
2022-10-05T18:50:13.397Z,4.31
2022-10-05T18:52:40.601Z,4.21
2022-10-05T18:55:03.617Z,4.15
2022-10-05T18:57:50.985Z,4.07
2022-10-05T19:00:24.800Z,4.14
2022-10-05T19:02:57.841Z,4.12
2022-10-05T19:05:35.768Z,4.06
2022-10-05T19:07:40.474Z,4.02
2022-10-05T19:09:42.640Z,4.01
2022-10-05T19:11:55.312Z,4.04
2022-10-05T19:13:58.814Z,4.10
2022-10-05T19:16:38.574Z,4.21
2022-10-05T19:19:06.610Z,4.30
2022-10-05T19:21:33.204Z,4.36
2022-10-05T19:23:38.438Z,4.44
2022-10-05T19:25:49.476Z,4.50
2022-10-05T19:31:29.072Z,4.61
2022-10-05T19:34:09.975Z,4.67
2022-10-05T19:36:44.250Z,4.75
2022-10-05T19:39:15.566Z,4.82
2022-10-05T19:41:29.946Z,4.84
2022-10-05T19:43:57.002Z,4.96
2022-10-05T19:46:17.667Z,5.06
2022-10-05T19:48:33.330Z,5.14
2022-10-05T19:50:38.695Z,5.18
2022-10-05T19:52:49.114Z,5.20
2022-10-05T19:55:14.764Z,5.26
2022-10-05T19:57:19.299Z,5.31
2022-10-05T19:59:27.692Z,5.39
2022-10-05T20:01:34.105Z,5.43
2022-10-05T20:03:38.664Z,5.47
2022-10-05T20:05:41.254Z,5.49
2022-10-05T20:07:43.552Z,5.53
2022-10-05T20:09:53.677Z,5.53
2022-10-05T20:11:56.823Z,5.48
2022-10-05T20:14:01.855Z,5.54
2022-10-05T20:16:31.746Z,5.57
2022-10-05T20:19:01.356Z,5.57
2022-10-05T20:21:03.789Z,5.55
2022-10-05T20:23:18.753Z,5.59
2022-10-05T20:25:20.819Z,5.58
2022-10-05T20:27:55.137Z,5.61
2022-10-05T20:29:58.179Z,5.59
2022-10-05T20:32:00.604Z,5.64
2022-10-05T20:34:03.192Z,5.67
2022-10-05T20:36:05.510Z,5.69
2022-10-05T20:38:08.369Z,5.73
2022-10-05T20:40:11.173Z,5.76
2022-10-05T20:42:14.230Z,5.74
2022-10-05T20:44:16.489Z,5.73
2022-10-05T20:46:18.636Z,5.81
2022-10-05T20:48:20.924Z,5.85
2022-10-05T20:50:23.176Z,5.88
2022-10-05T20:52:25.747Z,5.89
2022-10-05T20:54:28.274Z,5.91
2022-10-05T20:56:30.701Z,5.92
2022-10-05T20:58:33.603Z,5.97
2022-10-05T21:00:54.094Z,5.97
2022-10-05T21:02:56.926Z,5.98
2022-10-05T21:04:59.305Z,6.02
2022-10-05T21:07:06.169Z,6.05
2022-10-05T21:09:11.714Z,6.06
2022-10-05T21:11:14.730Z,6.13
2022-10-05T21:13:18.588Z,6.11
2022-10-05T21:15:31.858Z,6.19
2022-10-05T21:17:34.946Z,6.19
2022-10-05T21:19:40.613Z,6.23
2022-10-05T21:21:45.419Z,6.16
2022-10-05T21:23:51.643Z,6.29
2022-10-05T21:25:54.216Z,6.32
2022-10-05T21:27:56.584Z,6.33
2022-10-05T21:29:59.520Z,6.37
2022-10-05T21:32:02.333Z,6.38
2022-10-05T21:34:05.016Z,6.36
2022-10-05T21:36:07.427Z,6.33
2022-10-05T21:38:11.466Z,6.34
2022-10-05T21:40:13.858Z,6.32
2022-10-05T21:42:15.965Z,6.33
2022-10-05T21:44:19.719Z,6.36
2022-10-05T21:46:26.508Z,6.38
2022-10-05T21:48:31.286Z,6.39
2022-10-05T21:50:34.975Z,6.37
2022-10-05T21:52:37.954Z,6.42
2022-10-05T21:54:41.244Z,6.44
2022-10-05T21:56:50.950Z,6.46
2022-10-05T21:58:53.353Z,6.45
2022-10-05T22:00:58.621Z,6.46
2022-10-05T22:03:00.844Z,6.47
2022-10-05T22:05:03.353Z,6.45
2022-10-05T22:07:18.866Z,6.48
2022-10-05T22:09:21.644Z,6.47
2022-10-05T22:11:23.993Z,6.48
2022-10-05T22:13:26.745Z,6.46
2022-10-05T22:15:30.479Z,6.45
2022-10-05T22:17:33.169Z,6.46
2022-10-05T22:19:35.496Z,6.41
2022-10-05T22:21:41.995Z,6.43
2022-10-05T22:23:46.158Z,6.41
2022-10-05T22:25:48.790Z,6.42
2022-10-05T22:27:51.460Z,6.46
2022-10-05T22:29:55.539Z,6.48
2022-10-05T22:31:57.939Z,6.47
2022-10-05T22:34:00.554Z,6.49
2022-10-05T22:36:06.169Z,6.47
2022-10-05T22:38:08.450Z,6.50
2022-10-05T22:40:12.193Z,6.51
2022-10-05T22:42:14.513Z,6.48
2022-10-05T22:44:23.234Z,6.49
2022-10-05T22:46:25.508Z,6.51
2022-10-05T22:48:27.986Z,6.53
2022-10-05T22:50:30.620Z,6.53
2022-10-05T22:52:33.357Z,6.55
2022-10-05T22:54:37.948Z,6.56
2022-10-05T22:56:41.086Z,6.55
2022-10-05T22:58:44.278Z,6.56
2022-10-05T23:00:58.052Z,6.59
2022-10-05T23:03:01.838Z,6.63
2022-10-05T23:05:05.029Z,6.71
2022-10-05T23:07:07.181Z,6.69
2022-10-05T23:09:09.322Z,6.74
2022-10-05T23:11:20.978Z,6.78
2022-10-05T23:13:23.081Z,6.78
2022-10-05T23:15:25.767Z,6.78
2022-10-05T23:17:28.587Z,6.83
2022-10-05T23:19:30.660Z,6.81
2022-10-05T23:21:32.905Z,6.79
2022-10-05T23:23:38.602Z,6.81
2022-10-05T23:25:40.813Z,6.74
2022-10-05T23:27:43.519Z,6.78
2022-10-05T23:29:45.787Z,6.79
2022-10-05T23:31:47.836Z,6.83
2022-10-05T23:33:50.197Z,6.76
2022-10-05T23:36:02.743Z,6.79
2022-10-05T23:38:04.955Z,6.81
2022-10-05T23:40:11.079Z,6.86
2022-10-05T23:42:14.476Z,6.85
2022-10-05T23:44:16.587Z,6.86
2022-10-05T23:46:18.820Z,6.87
2022-10-05T23:48:21.687Z,6.88
2022-10-05T23:50:25.205Z,6.88
2022-10-05T23:52:27.524Z,6.84
2022-10-05T23:54:29.540Z,6.86
2022-10-05T23:56:31.800Z,6.88
2022-10-05T23:58:41.228Z,6.87
